Time;durP1;ratioP1;P1;durP2;ratioP2;P2;SDS_P1;SDS_P2;PMS_P1;PMS_P2;Temp;Humidity;BMP_temperature;BMP_pressure;BME280_temperature;BME280_humidity;BME280_pressure;Samples;Min_cycle;Max_cycle;Signal;HPM_P1;HPM_P2
2021/04/29 05:00:39;;;;;;;8.77;8.07;;;;;;;24.48;41.85;94581.13;6026233;23;20111;-78
2021/04/29 05:03:05;;;;;;;6.88;6.38;;;;;;;23.99;41.86;94580.00;4961464;28;20035;-79
2021/04/29 05:05:31;;;;;;;6.57;6.07;;;;;;;25.74;40.28;94581.88;4956820;28;20057;-79
2021/04/29 05:07:58;;;;;;;8.65;7.75;;;;;;;24.67;42.63;94584.81;4957672;28;20018;-79
2021/04/29 05:10:24;;;;;;;6.95;6.45;;;;;;;25.63;38.92;94584.56;4958941;28;20737;-78
2021/04/29 05:12:49;;;;;;;7.78;6.75;;;;;;;26.70;38.11;94580.13;4972922;28;20033;-79
2021/04/29 05:15:15;;;;;;;9.65;7.63;;;;;;;26.10;38.31;94577.94;4958728;28;20027;-79
2021/04/29 05:17:40;;;;;;;8.18;6.85;;;;;;;29.37;34.24;94582.78;4972735;28;20027;-79
2021/04/29 05:20:06;;;;;;;9.68;6.70;;;;;;;27.91;35.71;94583.28;4974870;28;20053;-79
2021/04/29 05:22:32;;;;;;;7.32;6.72;;;;;;;27.32;38.19;94572.31;4989097;28;20117;-79
2021/04/29 05:24:57;;;;;;;6.53;6.00;;;;;;;29.42;34.07;94582.69;4957681;28;20046;-79
2021/04/29 05:27:22;;;;;;;7.43;6.65;;;;;;;27.13;38.13;94569.63;4957503;28;20494;-80
2021/04/29 05:29:48;;;;;;;7.22;6.53;;;;;;;28.41;35.66;94573.78;4990515;28;20030;-80
2021/04/29 05:32:14;;;;;;;8.70;7.38;;;;;;;26.06;39.53;94580.34;4974161;28;20030;-80
2021/04/29 05:34:40;;;;;;;8.80;6.88;;;;;;;26.77;38.40;94581.66;4956547;28;20026;-80
2021/04/29 05:37:06;;;;;;;8.60;7.85;;;;;;;26.85;38.44;94581.84;4942526;28;20031;-79
2021/04/29 05:39:31;;;;;;;7.05;6.35;;;;;;;29.55;35.10;94581.88;4970858;28;20160;-78
2021/04/29 05:41:57;;;;;;;8.93;8.02;;;;;;;25.61;39.50;94585.91;4958034;28;20422;-80
2021/04/29 05:44:22;;;;;;;8.00;7.22;;;;;;;23.50;45.88;94588.38;4973212;28;20388;-79
2021/04/29 05:46:48;;;;;;;8.35;7.65;;;;;;;30.36;35.61;94590.81;4973047;28;20022;-80
2021/04/29 05:49:13;;;;;;;9.80;8.25;;;;;;;25.14;39.60;94596.97;4958165;28;20035;-80
2021/04/29 05:51:39;;;;;;;10.38;8.68;;;;;;;29.49;34.56;94593.75;4937945;28;20078;-80
2021/04/29 05:54:05;;;;;;;8.63;7.82;;;;;;;32.19;31.02;94590.25;4957483;28;20541;-81
2021/04/29 05:56:30;;;;;;;8.95;8.10;;;;;;;29.98;34.28;94594.91;4971585;28;20054;-81
2021/04/29 05:58:56;;;;;;;9.07;7.60;;;;;;;30.41;33.33;94592.63;4973573;28;20022;-81
2021/04/29 06:01:21;;;;;;;9.60;8.65;;;;;;;29.91;33.92;94595.31;4956126;28;20062;-81
2021/04/29 06:03:48;;;;;;;9.77;8.98;;;;;;;27.29;38.16;94594.97;4939715;28;20067;-81
2021/04/29 06:06:13;;;;;;;10.90;10.10;;;;;;;24.33;44.79;94593.59;4956530;28;20022;-81
2021/04/29 06:08:39;;;;;;;13.07;11.77;;;;;;;22.80;48.56;94602.00;4954102;28;20960;-81
2021/04/29 06:11:04;;;;;;;13.30;12.10;;;;;;;22.10;50.68;94606.72;4954860;28;20038;-81
2021/04/29 06:13:30;;;;;;;13.90;12.60;;;;;;;21.29;50.37;94598.72;4969355;28;20041;-82
2021/04/29 06:15:55;;;;;;;14.50;12.98;;;;;;;20.39;54.10;94603.50;4953572;28;20104;-82
2021/04/29 06:18:21;;;;;;;15.57;13.50;;;;;;;21.85;49.17;94607.25;4953956;28;20042;-81
2021/04/29 06:20:46;;;;;;;22.75;16.08;;;;;;;23.41;46.10;94591.78;4970957;28;20475;-81
2021/04/29 06:23:12;;;;;;;15.00;13.35;;;;;;;27.62;38.21;94594.06;4955648;28;20490;-81
2021/04/29 06:25:37;;;;;;;16.20;14.50;;;;;;;25.21;41.49;94600.09;4954966;28;20029;-81
2021/04/29 06:28:03;;;;;;;16.27;13.75;;;;;;;24.59;45.10;94593.28;4955906;28;20038;-81
2021/04/29 06:30:30;;;;;;;15.35;13.80;;;;;;;26.51;40.82;94594.38;4970431;28;20460;-81
2021/04/29 06:32:55;;;;;;;14.40;12.65;;;;;;;25.85;41.28;94599.34;4955927;28;20065;-81
2021/04/29 06:35:21;;;;;;;14.23;12.15;;;;;;;27.35;39.36;94598.38;4970588;28;20026;-82
2021/04/29 06:37:46;;;;;;;13.55;12.18;;;;;;;28.09;37.48;94603.06;4955070;28;20033;-78
2021/04/29 06:40:14;;;;;;;14.07;12.57;;;;;;;26.76;41.83;94596.81;4954806;28;20033;-77
2021/04/29 06:42:39;;;;;;;14.18;12.63;;;;;;;29.56;37.03;94596.81;4954903;28;20030;-77
2021/04/29 06:45:05;;;;;;;12.50;11.27;;;;;;;30.64;34.40;94594.97;4954564;28;20093;-75
2021/04/29 06:47:34;;;;;;;13.10;11.75;;;;;;;28.30;36.17;94596.34;5002721;28;20073;-78
2021/04/29 06:49:59;;;;;;;12.95;11.52;;;;;;;29.24;36.47;94607.56;4972244;28;20069;-78
2021/04/29 06:52:25;;;;;;;12.73;11.60;;;;;;;29.61;36.23;94602.03;4953580;28;20065;-78
2021/04/29 06:54:50;;;;;;;13.60;11.75;;;;;;;29.85;35.86;94593.84;4955828;28;20061;-78
2021/04/29 06:57:16;;;;;;;12.32;11.05;;;;;;;26.90;41.22;94594.31;4953761;28;20030;-77
2021/04/29 06:59:41;;;;;;;12.10;10.93;;;;;;;26.90;40.29;94594.31;4954463;28;20085;-76
2021/04/29 07:02:07;;;;;;;13.65;12.25;;;;;;;25.80;44.21;94608.09;4936988;28;20043;-76
2021/04/29 07:04:33;;;;;;;12.20;11.10;;;;;;;26.44;42.74;94609.84;4970224;28;20041;-77
2021/04/29 07:06:58;;;;;;;12.80;11.60;;;;;;;25.65;42.91;94606.31;4971206;28;20030;-76
2021/04/29 07:09:24;;;;;;;13.15;11.75;;;;;;;25.48;45.51;94599.75;4987187;28;20030;-77
2021/04/29 07:11:49;;;;;;;14.02;11.95;;;;;;;22.24;49.41;94603.44;4955198;28;20831;-77
2021/04/29 07:14:15;;;;;;;12.45;11.20;;;;;;;23.24;51.95;94601.72;4986995;28;20030;-77
2021/04/29 07:16:40;;;;;;;14.68;13.07;;;;;;;23.78;49.26;94603.00;4971201;28;20026;-77
2021/04/29 07:19:06;;;;;;;12.88;11.57;;;;;;;22.48;51.89;94614.44;4953727;28;20026;-77
2021/04/29 07:21:31;;;;;;;11.88;10.85;;;;;;;21.86;50.42;94599.09;4953555;28;20434;-77
2021/04/29 07:23:57;;;;;;;14.25;12.15;;;;;;;22.32;51.37;94605.59;4954005;28;20030;-77
2021/04/29 07:26:23;;;;;;;16.23;13.98;;;;;;;22.04;52.68;94608.53;4937089;28;20022;-77
2021/04/29 07:28:49;;;;;;;14.63;12.93;;;;;;;22.35;50.63;94606.94;4938947;28;20069;-78
2021/04/29 07:31:14;;;;;;;15.77;12.60;;;;;;;22.56;51.75;94598.94;5000710;28;20023;-77
2021/04/29 07:33:40;;;;;;;15.02;11.70;;;;;;;22.74;50.39;94591.66;4954355;28;20034;-77
2021/04/29 07:36:06;;;;;;;16.48;13.80;;;;;;;21.76;51.82;94600.84;4951810;28;20034;-77
2021/04/29 07:38:31;;;;;;;14.55;13.05;;;;;;;22.15;54.55;94602.31;4953079;28;20415;-77
2021/04/29 07:40:57;;;;;;;14.52;13.02;;;;;;;20.49;57.68;94606.28;4987220;28;20026;-77
2021/04/29 07:43:22;;;;;;;14.55;12.93;;;;;;;20.23;57.16;94606.88;4987683;28;20027;-77
2021/04/29 07:45:48;;;;;;;15.95;13.63;;;;;;;22.44;52.38;94600.94;4970582;28;20030;-77
2021/04/29 07:48:13;;;;;;;15.23;13.70;;;;;;;21.24;54.44;94603.13;4967875;28;20046;-77
2021/04/29 07:50:39;;;;;;;19.50;14.02;;;;;;;20.91;55.59;94601.34;4968293;28;20035;-77
2021/04/29 07:53:04;;;;;;;16.45;14.73;;;;;;;20.16;58.06;94596.56;4967482;28;20411;-78
2021/04/29 07:55:30;;;;;;;15.55;13.95;;;;;;;21.30;57.12;94595.06;4969788;28;20030;-78
2021/04/29 07:57:55;;;;;;;16.23;13.38;;;;;;;21.88;54.78;94599.63;4952776;28;20093;-76
2021/04/29 08:00:21;;;;;;;15.77;14.20;;;;;;;21.27;56.52;94600.00;4954060;28;20038;-77
2021/04/29 08:02:46;;;;;;;16.27;13.05;;;;;;;21.93;57.67;94591.03;4953591;28;20077;-77
2021/04/29 08:05:12;;;;;;;15.23;13.48;;;;;;;22.36;56.46;94597.97;4952795;28;20030;-77
2021/04/29 08:07:38;;;;;;;15.15;13.00;;;;;;;23.04;53.37;94591.84;4987427;28;20042;-77
2021/04/29 08:10:04;;;;;;;14.85;13.25;;;;;;;21.04;55.73;94593.13;4968599;28;20045;-77
2021/04/29 08:12:30;;;;;;;17.92;13.85;;;;;;;20.04;58.45;94595.81;4986490;28;20038;-77
2021/04/29 08:14:58;;;;;;;14.23;12.82;;;;;;;20.88;58.16;94588.69;4968785;28;20033;-77
2021/04/29 08:17:24;;;;;;;16.55;13.73;;;;;;;22.42;56.93;94587.19;4955045;28;20026;-78
2021/04/29 08:19:50;;;;;;;14.63;12.20;;;;;;;22.47;55.42;94597.00;4953757;28;20454;-77
2021/04/29 08:22:15;;;;;;;14.82;13.32;;;;;;;23.15;54.47;94587.41;4937077;28;20459;-77
2021/04/29 08:24:41;;;;;;;17.08;13.00;;;;;;;21.79;55.95;94592.44;4970602;28;20065;-77
2021/04/29 08:27:06;;;;;;;17.20;13.23;;;;;;;22.65;55.10;94587.88;4985979;28;20384;-77
2021/04/29 08:29:32;;;;;;;16.05;13.10;;;;;;;22.03;57.85;94594.53;4970535;28;20033;-78
2021/04/29 08:31:57;;;;;;;15.93;13.65;;;;;;;21.90;58.97;94586.22;4952304;28;20037;-78
2021/04/29 08:34:23;;;;;;;19.45;12.80;;;;;;;21.70;57.02;94580.72;4954057;28;20051;-77
2021/04/29 08:36:48;;;;;;;22.15;13.57;;;;;;;22.65;56.50;94582.59;4936685;28;20030;-78
2021/04/29 08:39:14;;;;;;;17.50;14.60;;;;;;;22.22;56.67;94588.91;4969838;28;20026;-78
2021/04/29 08:41:39;;;;;;;14.48;13.02;;;;;;;22.88;55.26;94587.53;4969159;28;20029;-78
2021/04/29 08:44:05;;;;;;;14.60;13.18;;;;;;;22.49;54.45;94576.44;4985970;28;20029;-78
2021/04/29 08:46:30;;;;;;;14.55;13.00;;;;;;;22.07;59.07;94586.91;4954074;28;20031;-78
2021/04/29 08:48:57;;;;;;;15.85;14.20;;;;;;;21.35;57.41;94579.28;4952206;28;20085;-78
2021/04/29 08:51:23;;;;;;;25.38;13.25;;;;;;;21.89;56.62;94582.00;4969627;28;20058;-78
2021/04/29 08:53:51;;;;;;;19.58;13.57;;;;;;;20.46;57.34;94580.44;4957650;28;20585;-77
2021/04/29 08:56:23;;;;;;;13.77;12.38;;;;;;;21.97;57.16;94579.72;4953499;28;20035;-78
2021/04/29 08:58:53;;;;;;;16.08;12.25;;;;;;;22.07;52.98;94576.34;4968596;28;20113;-77
2021/04/29 09:01:19;;;;;;;22.88;16.52;;;;;;;22.01;57.97;94575.53;4984252;28;20041;-77
2021/04/29 09:03:44;;;;;;;16.45;14.60;;;;;;;22.58;60.88;94583.63;4970164;28;20062;-77
2021/04/29 09:06:10;;;;;;;18.67;16.40;;;;;;;21.92;58.98;94576.22;4952136;28;20038;-78
2021/04/29 09:08:38;;;;;;;19.52;16.42;;;;;;;21.33;59.43;94581.38;4969602;28;20101;-78
2021/04/29 09:11:14;;;;;;;16.98;14.95;;;;;;;20.71;58.90;94582.66;4968349;28;20316;-78
2021/04/29 09:13:40;;;;;;;17.77;13.70;;;;;;;21.31;59.88;94570.31;4954957;28;20028;-78
2021/04/29 09:16:08;;;;;;;16.50;14.35;;;;;;;22.49;59.62;94571.94;4956288;28;20038;-79
2021/04/29 09:18:33;;;;;;;24.10;14.65;;;;;;;22.90;55.65;94561.66;4956223;28;20210;-78
2021/04/29 09:21:05;;;;;;;15.88;13.43;;;;;;;22.00;56.11;94565.22;4973331;28;20407;-78
2021/04/29 09:23:32;;;;;;;16.80;13.45;;;;;;;22.46;57.67;94559.25;4957235;28;20027;-77
2021/04/29 09:25:59;;;;;;;15.73;13.68;;;;;;;22.95;56.75;94551.13;4973475;28;20034;-77
2021/04/29 09:28:41;;;;;;;15.27;13.70;;;;;;;22.75;56.43;94545.72;4970787;28;20066;-78
2021/04/29 09:31:11;;;;;;;16.65;12.73;;;;;;;21.77;58.85;94549.69;4988014;28;20042;-77
2021/04/29 09:33:39;;;;;;;20.60;13.27;;;;;;;21.15;59.57;94555.38;4956462;28;20406;-78
2021/04/29 09:36:05;;;;;;;13.82;12.32;;;;;;;22.16;59.07;94553.75;4959082;28;20050;-78
2021/04/29 09:38:32;;;;;;;18.27;12.05;;;;;;;23.17;54.23;94546.47;4986415;28;20030;-77
2021/04/29 09:40:58;;;;;;;18.10;11.35;;;;;;;22.79;55.80;94549.44;4953138;28;20026;-78
2021/04/29 09:43:23;;;;;;;14.55;12.07;;;;;;;23.06;53.94;94550.09;4989710;28;20499;-78
2021/04/29 09:45:54;;;;;;;16.00;11.20;;;;;;;22.49;52.48;94548.19;4971333;28;20026;-77
2021/04/29 09:48:22;;;;;;;12.50;11.13;;;;;;;21.69;56.01;94552.75;4988809;28;20098;-78
2021/04/29 09:50:50;;;;;;;14.82;11.25;;;;;;;22.89;55.57;94542.34;4972515;28;20081;-78
2021/04/29 09:53:16;;;;;;;13.35;9.43;;;;;;;23.20;56.26;94542.50;4956181;28;20550;-78
2021/04/29 09:55:45;;;;;;;11.45;9.52;;;;;;;23.58;54.94;94547.41;4940871;28;20438;-78
2021/04/29 09:58:17;;;;;;;12.35;9.63;;;;;;;23.78;53.02;94549.28;4955420;28;20483;-78
2021/04/29 10:00:49;;;;;;;13.05;8.50;;;;;;;23.48;49.52;94536.78;4973342;28;20117;-78
2021/04/29 10:03:16;;;;;;;9.73;8.75;;;;;;;23.56;54.38;94545.03;4939627;28;20498;-78
2021/04/29 10:05:41;;;;;;;9.38;7.60;;;;;;;22.92;52.93;94543.72;4956570;28;20073;-78
2021/04/29 10:08:10;;;;;;;10.77;9.00;;;;;;;22.69;56.82;94544.09;4956493;28;20398;-78
2021/04/29 10:10:38;;;;;;;9.20;8.27;;;;;;;23.63;51.93;94537.63;4955422;28;20026;-78
2021/04/29 10:13:05;;;;;;;10.23;7.53;;;;;;;23.49;53.37;94536.56;4956723;28;20756;-78
2021/04/29 10:15:39;;;;;;;8.20;6.53;;;;;;;23.31;50.58;94536.22;4987263;28;20396;-78
2021/04/29 10:18:08;;;;;;;12.82;7.55;;;;;;;23.19;51.24;94530.31;4972927;28;20034;-78
2021/04/29 10:20:39;;;;;;;10.30;7.68;;;;;;;23.56;55.25;94526.53;4938438;28;20408;-78
2021/04/29 10:23:04;;;;;;;9.57;6.22;;;;;;;24.29;49.34;94526.31;4972494;28;20042;-78
2021/04/29 10:25:31;;;;;;;7.82;4.35;;;;;;;23.93;44.65;94518.34;4971436;28;20096;-77
2021/04/29 10:27:57;;;;;;;6.47;3.50;;;;;;;24.51;44.11;94521.53;4970681;28;20788;-77
2021/04/29 10:30:38;;;;;;;8.18;4.28;;;;;;;24.09;46.65;94514.66;4972566;28;20113;-78
2021/04/29 10:33:14;;;;;;;10.35;6.22;;;;;;;23.99;48.40;94525.22;4938249;28;20066;-78
2021/04/29 10:35:56;;;;;;;6.85;4.00;;;;;;;23.44;45.66;94512.72;4971768;28;20022;-81
2021/04/29 10:38:28;;;;;;;5.90;3.75;;;;;;;24.16;46.03;94518.91;4956017;28;20030;-81
2021/04/29 10:40:53;;;;;;;10.05;4.32;;;;;;;24.65;46.36;94522.56;4955001;28;20041;-81
2021/04/29 10:43:49;;;;;;;5.78;4.03;;;;;;;24.60;45.37;94519.91;4972282;28;20551;-81
2021/04/29 10:46:27;;;;;;;8.02;4.57;;;;;;;23.98;47.06;94522.88;4957272;28;20041;-81
2021/04/29 10:48:53;;;;;;;8.77;5.30;;;;;;;22.92;49.76;94512.00;4988051;28;20547;-77
2021/04/29 10:51:35;;;;;;;7.65;4.90;;;;;;;23.66;49.54;94522.31;4954435;28;20137;-78
2021/04/29 10:54:12;;;;;;;7.53;4.68;;;;;;;24.14;47.21;94516.56;5001573;28;20600;-78
2021/04/29 10:56:38;;;;;;;7.72;4.25;;;;;;;23.82;46.27;94513.34;4987682;28;20100;-78
2021/04/29 10:59:12;;;;;;;8.32;3.38;;;;;;;24.37;46.30;94521.28;4968866;28;20471;-78
2021/04/29 11:01:44;;;;;;;5.93;3.30;;;;;;;24.63;46.44;94514.88;4954929;28;20141;-78
2021/04/29 11:04:20;;;;;;;4.53;2.65;;;;;;;24.81;41.66;94510.88;4936483;28;20037;-79
2021/04/29 11:06:49;;;;;;;9.30;3.65;;;;;;;23.16;45.29;94513.16;4950717;28;20019;-79
2021/04/29 11:09:22;;;;;;;5.68;3.88;;;;;;;24.39;45.53;94519.16;4968017;28;20031;-79
2021/04/29 11:11:59;;;;;;;4.53;3.70;;;;;;;23.86;43.44;94512.53;4949346;28;20026;-78
2021/04/29 11:14:24;;;;;;;8.45;3.70;;;;;;;23.58;45.61;94511.19;4984575;28;20407;-79
2021/04/29 11:16:51;;;;;;;9.13;4.13;;;;;;;24.41;47.06;94510.94;4950323;28;20034;-78
2021/04/29 11:19:42;;;;;;;6.82;4.00;;;;;;;24.56;47.64;94519.66;4979498;28;20031;-79
2021/04/29 11:22:12;;;;;;;7.13;3.70;;;;;;;24.05;47.21;94513.59;4971290;28;20022;-78
2021/04/29 11:24:48;;;;;;;5.65;3.25;;;;;;;23.47;43.38;94506.16;4953713;28;20070;-79
2021/04/29 11:27:38;;;;;;;6.63;3.83;;;;;;;24.58;45.90;94500.84;4940119;28;20030;-78
2021/04/29 11:30:08;;;;;;;4.07;3.67;;;;;;;24.61;44.38;94493.16;4966065;28;20050;-78
2021/04/29 11:32:35;;;;;;;6.20;3.70;;;;;;;24.09;44.26;94484.75;4986282;28;20084;-78
2021/04/29 11:35:02;;;;;;;8.13;4.47;;;;;;;24.11;45.28;94485.28;4939018;28;20026;-81
2021/04/29 11:37:27;;;;;;;7.50;4.35;;;;;;;24.03;47.22;94483.97;4953219;28;20117;-80
2021/04/29 11:40:01;;;;;;;5.68;3.65;;;;;;;24.33;45.03;94474.44;4933543;28;20041;-80
2021/04/29 11:42:29;;;;;;;8.63;3.70;;;;;;;24.59;45.20;94481.25;4970216;28;20613;-80
2021/04/29 11:45:14;;;;;;;8.52;4.75;;;;;;;24.72;46.07;94469.31;4953057;28;20076;-80
2021/04/29 11:47:41;;;;;;;7.65;4.28;;;;;;;24.79;43.82;94470.56;4954437;28;20034;-80
2021/04/29 11:50:07;;;;;;;5.70;4.13;;;;;;;24.39;44.54;94474.16;4968401;28;20517;-80
2021/04/29 11:52:33;;;;;;;8.85;4.25;;;;;;;24.59;42.91;94468.00;4953871;28;20026;-80
2021/04/29 11:54:58;;;;;;;5.20;3.65;;;;;;;24.45;46.64;94473.06;4951784;28;20022;-81
2021/04/29 11:57:24;;;;;;;5.43;3.95;;;;;;;24.04;44.65;94466.22;4938018;28;20061;-81
2021/04/29 11:59:53;;;;;;;4.97;3.88;;;;;;;24.72;43.70;94466.66;4951704;28;20029;-81
2021/04/29 12:02:19;;;;;;;6.88;3.55;;;;;;;24.09;41.57;94458.28;4969816;28;20053;-81
2021/04/29 12:04:46;;;;;;;6.35;3.65;;;;;;;23.85;41.69;94454.59;4936177;28;20141;-78
2021/04/29 12:07:11;;;;;;;7.43;4.18;;;;;;;24.11;43.53;94458.81;4953793;28;20026;-78
2021/04/29 12:09:37;;;;;;;7.07;4.47;;;;;;;24.18;45.21;94458.56;4953331;28;20042;-78
2021/04/29 12:12:19;;;;;;;7.05;4.18;;;;;;;24.87;42.92;94445.41;4936335;28;20023;-78
2021/04/29 12:15:03;;;;;;;5.80;3.85;;;;;;;25.01;45.01;94447.19;4938646;28;20034;-79
2021/04/29 12:17:28;;;;;;;7.20;4.18;;;;;;;25.05;43.91;94444.78;4952900;28;20034;-78
2021/04/29 12:19:55;;;;;;;10.73;4.25;;;;;;;24.97;42.58;94446.16;4969954;28;20022;-78
2021/04/29 12:22:24;;;;;;;6.28;3.67;;;;;;;24.23;43.19;94440.03;4938338;28;20531;-79
2021/04/29 12:24:50;;;;;;;6.47;3.97;;;;;;;24.96;42.09;94430.53;4968689;28;20403;-79
2021/04/29 12:27:17;;;;;;;5.13;3.38;;;;;;;24.79;41.34;94432.72;4953986;28;20042;-80
2021/04/29 12:29:45;;;;;;;5.47;3.13;;;;;;;24.97;41.35;94432.91;4952001;28;20026;-80
2021/04/29 12:32:10;;;;;;;4.78;3.35;;;;;;;25.37;41.45;94423.91;4953629;28;20482;-84
2021/04/29 12:34:43;;;;;;;11.27;3.25;;;;;;;25.03;39.36;94425.72;4953113;28;20049;-84
2021/04/29 12:37:09;;;;;;;8.05;4.10;;;;;;;24.95;41.00;94419.13;4971353;28;20023;-85
2021/04/29 12:39:53;;;;;;;3.90;3.45;;;;;;;24.21;42.37;94408.50;4970939;28;20034;-84
2021/04/29 12:42:19;;;;;;;4.95;2.90;;;;;;;25.36;42.69;94408.31;4955826;28;20057;-85
2021/04/29 12:44:46;;;;;;;11.27;3.60;;;;;;;25.42;40.98;94399.22;4971031;28;20030;-87
2021/04/29 12:47:12;;;;;;;4.30;3.10;;;;;;;25.62;40.44;94399.13;4986273;28;20058;-86
2021/04/29 12:49:38;;;;;;;4.03;2.97;;;;;;;25.36;40.66;94403.78;4956154;28;20035;-86
2021/04/29 12:52:13;;;;;;;10.45;3.47;;;;;;;25.52;39.15;94397.34;4941235;28;20180;-84
2021/04/29 12:54:39;;;;;;;5.20;2.95;;;;;;;25.31;41.15;94403.81;4958437;28;20489;-85
2021/04/29 12:57:05;;;;;;;6.47;3.78;;;;;;;24.61;41.29;94404.94;4958181;28;20097;-85
2021/04/29 12:59:30;;;;;;;3.47;3.10;;;;;;;25.67;39.42;94396.41;4956633;28;20085;-84
2021/04/29 13:02:07;;;;;;;7.95;3.53;;;;;;;24.55;39.98;94396.25;4957451;28;20042;-76
2021/04/29 13:04:33;;;;;;;4.65;3.47;;;;;;;24.99;40.06;94408.78;4956664;28;20027;-77
2021/04/29 13:07:04;;;;;;;3.10;2.75;;;;;;;24.74;40.58;94403.56;4957217;28;20030;-76
2021/04/29 13:09:37;;;;;;;4.05;2.80;;;;;;;24.53;41.56;94401.00;4973848;28;20030;-78
2021/04/29 13:12:13;;;;;;;5.40;3.13;;;;;;;24.04;39.63;94389.47;4972871;28;20109;-78
2021/04/29 13:14:42;;;;;;;7.28;2.80;;;;;;;24.70;41.55;94389.28;4958990;28;20480;-78
2021/04/29 13:17:13;;;;;;;5.38;3.28;;;;;;;24.80;41.90;94386.59;4956582;28;20042;-78
2021/04/29 13:19:39;;;;;;;6.78;3.63;;;;;;;24.24;38.91;94394.72;4990255;28;20052;-78
2021/04/29 13:22:05;;;;;;;5.07;2.67;;;;;;;25.03;41.90;94397.38;4955789;28;20032;-77
2021/04/29 13:24:30;;;;;;;4.47;3.03;;;;;;;25.40;40.50;94391.53;4941470;28;20030;-78
2021/04/29 13:26:57;;;;;;;7.15;3.30;;;;;;;24.89;40.28;94396.38;4972730;28;20549;-77
2021/04/29 13:29:23;;;;;;;6.28;3.20;;;;;;;24.43;38.55;94393.13;4956051;28;20034;-77
2021/04/29 13:31:49;;;;;;;3.63;2.67;;;;;;;24.67;39.07;94394.06;4957594;28;20037;-77
2021/04/29 13:34:14;;;;;;;4.82;3.08;;;;;;;24.89;38.08;94399.03;4939359;28;20101;-77
2021/04/29 13:36:40;;;;;;;7.75;4.35;;;;;;;24.83;41.62;94399.31;4973194;28;20022;-77
2021/04/29 13:39:06;;;;;;;5.53;3.92;;;;;;;24.71;41.62;94390.88;4971326;28;20088;-76
2021/04/29 13:41:31;;;;;;;6.43;4.25;;;;;;;24.93;43.11;94391.31;4973173;28;20057;-78
2021/04/29 13:43:57;;;;;;;7.75;4.60;;;;;;;23.99;44.65;94390.25;4939944;28;20061;-77
2021/04/29 13:46:22;;;;;;;9.43;4.85;;;;;;;24.19;44.17;94391.31;4989915;28;20092;-75
2021/04/29 13:48:48;;;;;;;8.02;4.53;;;;;;;23.65;42.81;94385.81;4972818;28;20041;-75
2021/04/29 13:51:15;;;;;;;6.43;4.80;;;;;;;23.61;43.66;94386.34;4955820;28;20030;-75
2021/04/29 13:53:40;;;;;;;8.65;5.68;;;;;;;23.45;44.21;94389.25;4972743;28;20034;-74
2021/04/29 13:56:06;;;;;;;9.23;5.20;;;;;;;23.32;44.94;94390.53;4970898;28;20073;-74
2021/04/29 13:58:31;;;;;;;8.30;5.30;;;;;;;23.64;45.27;94387.66;4956733;28;20042;-74
2021/04/29 14:00:57;;;;;;;6.25;4.63;;;;;;;24.01;45.01;94395.31;4969285;28;20140;-75
2021/04/29 14:03:22;;;;;;;8.85;5.30;;;;;;;24.03;43.78;94385.22;5004856;28;20026;-74
2021/04/29 14:05:48;;;;;;;7.20;4.50;;;;;;;23.65;43.52;94380.53;4956008;28;20550;-75
2021/04/29 14:08:13;;;;;;;5.55;4.53;;;;;;;23.81;42.55;94379.44;4955880;28;20121;-75
2021/04/29 14:10:39;;;;;;;6.50;4.95;;;;;;;24.06;43.33;94379.41;4972050;28;20415;-74
2021/04/29 14:13:05;;;;;;;10.25;5.00;;;;;;;24.10;43.37;94380.47;4970953;28;20507;-75
2021/04/29 14:15:30;;;;;;;5.45;4.40;;;;;;;24.10;43.82;94372.53;4972344;28;20049;-75
2021/04/29 14:17:57;;;;;;;7.55;4.43;;;;;;;23.81;44.40;94371.50;4954422;28;20085;-75
2021/04/29 14:20:25;;;;;;;7.50;4.03;;;;;;;23.63;43.03;94371.00;4956022;28;20092;-74
2021/04/29 14:22:50;;;;;;;6.20;4.18;;;;;;;23.44;43.39;94371.78;4955650;28;20081;-74
2021/04/29 14:25:16;;;;;;;10.02;5.00;;;;;;;23.44;43.83;94375.22;4972010;28;20026;-74
2021/04/29 14:27:41;;;;;;;8.05;4.50;;;;;;;23.38;42.59;94365.69;4989328;28;20026;-75
2021/04/29 14:30:07;;;;;;;8.68;4.28;;;;;;;23.72;42.09;94370.47;4970954;28;20549;-75
2021/04/29 14:32:33;;;;;;;5.07;4.13;;;;;;;24.02;42.70;94365.13;4971773;28;20025;-75
2021/04/29 14:34:59;;;;;;;7.80;4.28;;;;;;;24.33;41.30;94364.00;4954547;28;20061;-75
2021/04/29 14:37:25;;;;;;;7.72;4.68;;;;;;;24.19;41.63;94349.75;4956255;28;20058;-75
2021/04/29 14:39:50;;;;;;;10.52;5.32;;;;;;;24.24;43.45;94357.66;4938287;28;20446;-75
2021/04/29 14:42:16;;;;;;;7.05;5.43;;;;;;;24.43;44.42;94345.44;4955517;28;20026;-76
2021/04/29 14:44:41;;;;;;;6.70;5.95;;;;;;;23.86;46.03;94350.31;4939192;28;20478;-74
2021/04/29 14:47:08;;;;;;;9.05;5.63;;;;;;;23.39;46.36;94356.72;4955068;28;20085;-74
2021/04/29 14:49:33;;;;;;;9.00;5.78;;;;;;;23.16;47.03;94346.66;4955443;28;20433;-74
2021/04/29 14:51:59;;;;;;;8.75;6.28;;;;;;;23.01;46.89;94349.28;4953902;28;20487;-74
2021/04/29 14:54:24;;;;;;;9.23;5.95;;;;;;;22.84;47.90;94349.50;4955778;28;20031;-76
2021/04/29 14:56:50;;;;;;;5.45;4.80;;;;;;;23.18;47.95;94352.47;4953518;28;20038;-75
2021/04/29 14:59:15;;;;;;;8.70;5.60;;;;;;;23.46;48.32;94359.91;4956123;28;20030;-74
2021/04/29 15:01:41;;;;;;;9.45;5.65;;;;;;;23.33;47.39;94352.47;4987149;28;20802;-74
2021/04/29 15:04:06;;;;;;;8.52;5.90;;;;;;;23.24;46.95;94354.06;4988040;28;20104;-74
2021/04/29 15:06:32;;;;;;;9.32;5.85;;;;;;;23.01;47.31;94370.41;4988611;28;20128;-73
2021/04/29 15:08:58;;;;;;;13.25;6.07;;;;;;;22.55;48.35;94366.81;4970228;28;20030;-74
2021/04/29 15:11:24;;;;;;;10.32;6.80;;;;;;;22.55;48.21;94364.19;4988525;28;20125;-74
2021/04/29 15:13:50;;;;;;;9.80;6.78;;;;;;;22.52;48.41;94368.16;4969489;28;20112;-73
2021/04/29 15:16:15;;;;;;;9.95;6.47;;;;;;;22.63;48.29;94368.97;4989004;28;20037;-76
2021/04/29 15:18:40;;;;;;;6.78;5.75;;;;;;;22.41;48.13;94369.16;4986987;28;20085;-74
2021/04/29 15:21:08;;;;;;;8.57;6.03;;;;;;;22.20;49.05;94372.75;4985971;28;20038;-73
2021/04/29 15:23:33;;;;;;;13.23;6.15;;;;;;;22.00;49.52;94370.81;4968867;28;20451;-73
2021/04/29 15:25:58;;;;;;;8.68;6.35;;;;;;;21.86;49.99;94358.31;4967616;28;20030;-74
2021/04/29 15:28:24;;;;;;;7.70;6.50;;;;;;;21.73;49.79;94358.75;4952262;28;20030;-74
2021/04/29 15:30:49;;;;;;;11.32;6.63;;;;;;;21.60;50.60;94356.56;4967281;28;20030;-73
2021/04/29 15:33:16;;;;;;;9.70;6.28;;;;;;;21.46;50.25;94356.19;4970531;28;20403;-74
2021/04/29 15:35:41;;;;;;;14.82;7.07;;;;;;;21.35;50.10;94357.94;4971717;28;20026;-73
2021/04/29 15:38:07;;;;;;;13.90;5.90;;;;;;;21.39;50.03;94359.03;4986977;28;20022;-74
2021/04/29 15:40:32;;;;;;;12.77;5.88;;;;;;;21.42;49.74;94355.09;4967428;28;20041;-75
2021/04/29 15:42:58;;;;;;;9.60;6.22;;;;;;;21.62;49.42;94357.09;4953072;28;20566;-75
2021/04/29 15:45:23;;;;;;;12.50;6.20;;;;;;;21.45;47.90;94362.50;4953268;28;20035;-74
2021/04/29 15:47:50;;;;;;;7.75;5.35;;;;;;;21.47;47.98;94349.88;4968298;28;20057;-73
2021/04/29 15:50:17;;;;;;;7.22;5.15;;;;;;;21.41;47.98;94341.16;4987337;28;20507;-74
2021/04/29 15:52:42;;;;;;;11.70;5.28;;;;;;;21.35;47.73;94336.84;4967276;28;20036;-73
2021/04/29 15:55:09;;;;;;;12.40;5.72;;;;;;;21.21;48.57;94346.25;4987158;28;20030;-74
2021/04/29 15:57:35;;;;;;;11.18;5.88;;;;;;;21.15;47.93;94344.63;4952521;28;20042;-74
2021/04/29 16:00:03;;;;;;;17.10;6.25;;;;;;;21.13;48.28;94340.66;4969200;28;20022;-74
2021/04/29 16:02:29;;;;;;;8.90;5.13;;;;;;;21.05;48.43;94341.88;4953676;28;20507;-73
2021/04/29 16:04:54;;;;;;;11.20;5.28;;;;;;;20.98;48.80;94336.00;4969258;28;20044;-74
2021/04/29 16:07:20;;;;;;;8.65;5.20;;;;;;;20.85;48.94;94336.41;4985540;28;20069;-75
2021/04/29 16:09:45;;;;;;;11.77;5.72;;;;;;;20.72;49.42;94337.59;4968083;28;20053;-82
2021/04/29 16:12:11;;;;;;;10.68;6.45;;;;;;;20.59;50.89;94331.94;4954640;28;20030;-79
2021/04/29 16:14:36;;;;;;;11.75;7.13;;;;;;;20.43;52.49;94344.94;4968855;28;20022;-78
2021/04/29 16:17:02;;;;;;;11.85;7.53;;;;;;;20.33;53.21;94349.28;4970339;28;20038;-82
2021/04/29 16:19:27;;;;;;;9.20;7.70;;;;;;;20.30;53.57;94349.75;4953051;28;20676;-78
2021/04/29 16:21:53;;;;;;;11.30;7.50;;;;;;;20.28;53.66;94357.91;4953892;28;20511;-77
2021/04/29 16:24:21;;;;;;;9.48;7.13;;;;;;;20.26;53.51;94357.34;4952872;28;20077;-80
2021/04/29 16:26:46;;;;;;;14.05;7.45;;;;;;;20.28;53.30;94362.38;4985472;28;20030;-80